Aérodrome :
LOGIN :

S'inscrire | Disclaimer

   EN    FR    IT 

 










Légende :    VFR   VFR Marginal   IFR   IFR Intensif   IFR Très Intensif
Visi : 
Plafond : 
>= 8 km
>= 3000ft
5 à 8 km
1000 à 3000 ft
1500m à 5 km
500 à 1000 ft
800 à 1500m
200 à 500 ft
< 800m
< 200 ft
Symboles :   Orages  Brouillard  Fortes neiges  Fortes précipitations  Vent > 20 kt
SIGMETs :   Divers  Orages  Givrage  Turbulence  Onde Orograph.  Cendres Volcan.






- Altitude de l'aérodrome : 458 ft


LFSI - St-Dizier

DERNIER METAR :
  • 301600Z AUTO 28004KT 220V330 9999 BKN009 OVC064 14/12 Q1015

METARs EXPIRÉS :
  • 301530Z AUTO 30004KT 270V340 9999 FEW009 OVC054 14/12 Q1015
  • 301500Z AUTO 30006KT 9999 FEW009 SCT040 OVC048 14/12 Q1015
  • 301430Z AUTO 30010KT 9999 SCT011 SCT031 OVC039 14/12 Q1015
  • 301400Z AUTO 30014KT 9999 BKN009/// BKN017/// OVC031/// ///TCU 15/13 Q1015
  • 301330Z AUTO 30011KT 9999 BKN008/// BKN016/// BKN022/// ///CB 14/13 Q1015

TAF TAF LFSI
Valide du 30 à 15h jusqu'au 01 à 15h UTC


301400Z 3015/0115 30005KT 9999 SCT010 BKN020 BKN050
TEMPO 3015/3018 6000 SHRA BKN010 BKN020 BKN040CB
PROB30
TEMPO 3015/3018 30015KT 4000 TSRA
BECMG 3018/3020 NSW
TEMPO 3023/0104 3000 BR FEW005 SCT010
TEMPO 0106/0109 -SHRA BKN010TCU BKN025
BECMG 0113/0115 9999 NSW SCT025



MET'MAP, la Météo Aéronautique d'un coup d'oeil ! - Copyright ORBIFLY Décembre 2007 - Disclaimer

ORBIFLY MET'MAP TEAM :

Programmation & Développement : Alexandra Zaïnal
Sur une idée originale de : Baudouin d'Aumeries
Soutien technique & logistique : Manuel Goepfert
Assistance : Marc-Olivier Méhu




SOURCES & CREDITS :

   NOAA